createdAt,value
2017-10-28T00:01:01.406Z,50
2017-10-28T00:02:09.492Z,50
2017-10-28T00:03:17.576Z,49
2017-10-28T00:04:25.689Z,50
2017-10-28T00:05:33.754Z,50
2017-10-28T00:06:41.837Z,49
2017-10-28T00:07:49.920Z,49
2017-10-28T00:08:58.005Z,50
2017-10-28T00:10:06.090Z,50
2017-10-28T00:11:14.179Z,50
2017-10-28T00:12:22.261Z,50
2017-10-28T00:13:30.352Z,50
2017-10-28T00:14:38.441Z,50
2017-10-28T00:15:46.528Z,50
2017-10-28T00:16:54.610Z,49
2017-10-28T00:18:02.698Z,49
2017-10-28T00:19:10.790Z,49
2017-10-28T00:20:18.868Z,49
2017-10-28T00:21:26.953Z,49
2017-10-28T00:22:35.038Z,49
2017-10-28T00:23:43.125Z,49
2017-10-28T00:24:51.214Z,49
2017-10-28T00:25:59.310Z,49
2017-10-28T00:27:07.380Z,49
2017-10-28T00:28:15.473Z,49
2017-10-28T00:29:23.568Z,49
2017-10-28T00:30:31.649Z,49
2017-10-28T00:31:39.734Z,49
2017-10-28T00:32:47.818Z,49
2017-10-28T00:33:55.904Z,49
2017-10-28T00:35:03.996Z,49
2017-10-28T00:36:12.074Z,49
2017-10-28T00:37:20.166Z,49
2017-10-28T00:38:28.245Z,49
2017-10-28T00:39:36.332Z,49
2017-10-28T00:40:44.417Z,49
2017-10-28T00:41:52.509Z,49
2017-10-28T00:43:00.596Z,49
2017-10-28T00:44:08.672Z,49
2017-10-28T00:45:16.756Z,49
2017-10-28T00:46:24.845Z,49
2017-10-28T00:47:32.929Z,49
2017-10-28T00:48:41.015Z,49
2017-10-28T00:49:49.103Z,49
2017-10-28T00:50:57.591Z,49
2017-10-28T00:52:05.678Z,49
2017-10-28T00:53:13.764Z,48
2017-10-28T00:54:21.853Z,49
2017-10-28T00:55:29.936Z,49
2017-10-28T00:56:38.021Z,49
2017-10-28T00:57:46.106Z,49
2017-10-28T00:58:54.196Z,49
2017-10-28T01:00:02.280Z,49
2017-10-28T01:01:10.364Z,48
2017-10-28T01:02:18.449Z,48
2017-10-28T01:03:26.534Z,48
2017-10-28T01:04:34.620Z,48
2017-10-28T01:05:42.707Z,48
2017-10-28T01:06:50.791Z,48
2017-10-28T01:07:58.875Z,48
2017-10-28T01:09:06.962Z,48
2017-10-28T01:10:15.048Z,49
2017-10-28T01:11:23.133Z,48
2017-10-28T01:12:31.219Z,48
2017-10-28T01:13:39.306Z,49
2017-10-28T01:14:47.390Z,48
2017-10-28T01:15:55.481Z,48
2017-10-28T01:17:03.566Z,48
2017-10-28T01:18:11.649Z,48
2017-10-28T01:19:19.735Z,48
2017-10-28T01:20:27.821Z,48
2017-10-28T01:21:35.907Z,48
2017-10-28T01:22:43.996Z,48
2017-10-28T01:23:52.088Z,48
2017-10-28T01:25:00.172Z,48
2017-10-28T01:26:08.259Z,48
2017-10-28T01:27:16.344Z,48
2017-10-28T01:28:24.432Z,48
2017-10-28T01:29:32.521Z,48
2017-10-28T01:30:40.654Z,48
2017-10-28T01:31:48.738Z,48
2017-10-28T01:32:56.824Z,48
2017-10-28T01:34:04.912Z,48
2017-10-28T01:35:12.998Z,48
2017-10-28T01:36:21.435Z,48
2017-10-28T01:37:29.707Z,48
2017-10-28T01:38:37.268Z,48
2017-10-28T01:39:45.342Z,48
2017-10-28T01:40:53.424Z,48
2017-10-28T01:42:01.509Z,48
2017-10-28T01:43:09.596Z,48
2017-10-28T01:44:17.681Z,48
2017-10-28T01:45:25.768Z,48
2017-10-28T01:46:33.860Z,48
2017-10-28T01:47:41.946Z,48
2017-10-28T01:48:50.031Z,48
2017-10-28T01:49:58.115Z,48
2017-10-28T01:51:06.206Z,48
2017-10-28T01:52:14.285Z,48
2017-10-28T01:53:22.372Z,48
2017-10-28T01:54:30.465Z,48
2017-10-28T01:55:38.543Z,48
2017-10-28T01:56:46.639Z,48
2017-10-28T01:57:54.716Z,48
2017-10-28T01:59:02.802Z,48
2017-10-28T02:00:10.887Z,48
2017-10-28T02:01:18.974Z,48
2017-10-28T02:02:27.061Z,48
2017-10-28T02:03:35.141Z,48
2017-10-28T02:04:43.228Z,48
2017-10-28T02:05:51.315Z,47
2017-10-28T02:06:59.440Z,48
2017-10-28T02:08:07.487Z,48
2017-10-28T02:09:15.572Z,48
2017-10-28T02:10:23.654Z,48
2017-10-28T02:11:31.753Z,48
2017-10-28T02:12:40.268Z,48
2017-10-28T02:13:48.315Z,48
2017-10-28T02:14:56.005Z,48
2017-10-28T02:16:04.088Z,48
2017-10-28T02:17:12.182Z,48
2017-10-28T02:18:20.263Z,48
2017-10-28T02:19:28.381Z,48
2017-10-28T02:20:36.818Z,48
2017-10-28T02:21:44.529Z,48
2017-10-28T02:22:52.615Z,48
2017-10-28T02:24:00.703Z,48
2017-10-28T02:25:08.865Z,48
2017-10-28T02:26:16.873Z,48
2017-10-28T02:27:24.960Z,48
2017-10-28T02:28:33.051Z,48
2017-10-28T02:29:41.134Z,48
2017-10-28T02:30:49.217Z,48
2017-10-28T02:31:57.303Z,48
2017-10-28T02:33:05.390Z,48
2017-10-28T02:34:13.474Z,48
2017-10-28T02:35:21.559Z,48
2017-10-28T02:36:29.645Z,48
2017-10-28T02:37:37.731Z,48
2017-10-28T02:38:45.816Z,48
2017-10-28T02:39:53.901Z,48
2017-10-28T02:41:01.989Z,48
2017-10-28T02:42:10.073Z,48
2017-10-28T02:43:18.158Z,48
2017-10-28T02:44:26.244Z,48
2017-10-28T02:45:34.329Z,48
2017-10-28T02:46:42.413Z,48
2017-10-28T02:47:50.503Z,48
2017-10-28T02:48:58.590Z,48
2017-10-28T02:50:06.677Z,48
2017-10-28T02:51:14.757Z,48
2017-10-28T02:52:22.852Z,48
2017-10-28T02:53:30.944Z,48
2017-10-28T02:54:39.014Z,48
2017-10-28T02:55:47.105Z,48
2017-10-28T02:56:55.191Z,48
2017-10-28T02:58:03.277Z,48
2017-10-28T02:59:11.705Z,48
2017-10-28T03:00:19.792Z,48
2017-10-28T03:01:27.876Z,48
2017-10-28T03:02:35.962Z,48
2017-10-28T03:03:44.047Z,48
2017-10-28T03:04:52.136Z,47
2017-10-28T03:06:00.221Z,47
2017-10-28T03:07:08.304Z,47
2017-10-28T03:08:16.408Z,47
2017-10-28T03:09:24.484Z,48
2017-10-28T03:10:32.563Z,48
2017-10-28T03:11:40.697Z,48
2017-10-28T03:12:48.732Z,47
2017-10-28T03:13:56.818Z,47
2017-10-28T03:15:04.903Z,47
2017-10-28T03:16:12.988Z,47
2017-10-28T03:17:21.075Z,47
2017-10-28T03:18:29.159Z,47
2017-10-28T03:19:37.248Z,47
2017-10-28T03:20:45.331Z,47
2017-10-28T03:21:53.417Z,47
2017-10-28T03:23:01.501Z,47
2017-10-28T03:24:09.585Z,47
2017-10-28T03:25:17.670Z,47
2017-10-28T03:26:25.756Z,47
2017-10-28T03:27:33.841Z,47
2017-10-28T03:28:41.927Z,47
2017-10-28T03:29:50.013Z,47
2017-10-28T03:30:58.100Z,47
2017-10-28T03:32:06.182Z,47
2017-10-28T03:33:14.268Z,47
2017-10-28T03:34:22.364Z,47
2017-10-28T03:35:30.439Z,47
2017-10-28T03:36:38.534Z,47
2017-10-28T03:37:46.622Z,47
2017-10-28T03:38:54.706Z,47
2017-10-28T03:40:02.791Z,47
2017-10-28T03:41:10.903Z,47
2017-10-28T03:42:18.987Z,47
2017-10-28T03:43:27.074Z,47
2017-10-28T03:44:35.158Z,47
2017-10-28T03:45:43.244Z,47
2017-10-28T03:46:51.327Z,47
2017-10-28T03:47:59.414Z,47
2017-10-28T03:49:07.500Z,47
2017-10-28T03:50:15.587Z,47
2017-10-28T03:51:23.670Z,47
2017-10-28T03:52:31.763Z,47
2017-10-28T03:53:39.841Z,47
2017-10-28T03:54:47.932Z,47
2017-10-28T03:55:56.013Z,47
2017-10-28T03:57:04.095Z,47
2017-10-28T03:58:12.182Z,47
2017-10-28T03:59:20.274Z,47
2017-10-28T04:00:28.361Z,47
2017-10-28T04:01:36.443Z,47
2017-10-28T04:02:44.529Z,47
2017-10-28T04:03:52.615Z,47
2017-10-28T04:05:00.706Z,47
2017-10-28T04:06:08.794Z,47
2017-10-28T04:07:16.869Z,47
2017-10-28T04:08:24.955Z,47
2017-10-28T04:09:33.045Z,47
2017-10-28T04:10:41.125Z,47
2017-10-28T04:11:49.212Z,47
2017-10-28T04:12:57.299Z,47
2017-10-28T04:14:05.383Z,47
2017-10-28T04:15:13.467Z,47
2017-10-28T04:16:21.551Z,47
2017-10-28T04:17:29.637Z,47
2017-10-28T04:18:37.721Z,47
2017-10-28T04:19:45.807Z,47
2017-10-28T04:20:53.895Z,47
2017-10-28T04:22:01.979Z,47
2017-10-28T04:23:10.073Z,47
2017-10-28T04:24:18.162Z,47
2017-10-28T04:25:26.243Z,47
2017-10-28T04:26:34.341Z,47
2017-10-28T04:27:42.426Z,47
2017-10-28T04:28:50.509Z,47
2017-10-28T04:29:58.595Z,47
2017-10-28T04:31:06.681Z,47
2017-10-28T04:32:14.773Z,47
2017-10-28T04:33:22.852Z,47
2017-10-28T04:34:30.937Z,47
2017-10-28T04:35:39.023Z,48
2017-10-28T04:36:47.114Z,47
2017-10-28T04:37:55.193Z,47
2017-10-28T04:39:03.285Z,47
2017-10-28T04:40:11.373Z,47
2017-10-28T04:41:19.567Z,47
2017-10-28T04:42:27.648Z,47
2017-10-28T04:43:35.738Z,47
2017-10-28T04:44:43.819Z,47
2017-10-28T04:45:51.906Z,47
2017-10-28T04:46:59.992Z,47
2017-10-28T04:48:08.075Z,47
2017-10-28T04:49:16.160Z,47
2017-10-28T04:50:24.256Z,47
2017-10-28T04:51:32.367Z,47
2017-10-28T04:52:40.445Z,47
2017-10-28T04:53:48.530Z,47
2017-10-28T04:54:56.621Z,47
2017-10-28T04:56:04.699Z,47
2017-10-28T04:57:12.785Z,47
2017-10-28T04:58:20.870Z,47
2017-10-28T04:59:28.955Z,47
2017-10-28T05:00:37.041Z,47
2017-10-28T05:01:45.135Z,47
2017-10-28T05:02:53.220Z,47
2017-10-28T05:04:01.305Z,47
2017-10-28T05:05:09.389Z,47
2017-10-28T05:06:17.483Z,47
2017-10-28T05:07:25.559Z,47
2017-10-28T05:08:33.676Z,47
2017-10-28T05:09:41.763Z,47
2017-10-28T05:10:49.849Z,47
2017-10-28T05:11:57.942Z,47
2017-10-28T05:13:06.029Z,47
2017-10-28T05:14:14.132Z,47
2017-10-28T05:15:22.196Z,47
2017-10-28T05:16:30.291Z,47
2017-10-28T05:17:38.380Z,47
2017-10-28T05:18:46.461Z,47
2017-10-28T05:19:54.545Z,47
2017-10-28T05:21:02.629Z,47
2017-10-28T05:22:10.717Z,47
2017-10-28T05:23:18.803Z,47
2017-10-28T05:24:26.885Z,47
2017-10-28T05:25:35.062Z,47
2017-10-28T05:26:43.061Z,47
2017-10-28T05:27:51.141Z,47
2017-10-28T05:28:59.484Z,47
2017-10-28T05:30:07.791Z,47
2017-10-28T05:31:15.410Z,47
2017-10-28T05:32:23.489Z,47
2017-10-28T05:33:31.577Z,48
2017-10-28T05:34:39.668Z,47
2017-10-28T05:35:47.751Z,47
2017-10-28T05:36:55.835Z,47
2017-10-28T05:38:03.940Z,47
2017-10-28T05:39:12.026Z,47
2017-10-28T05:40:20.108Z,47
2017-10-28T05:41:28.197Z,47
2017-10-28T05:42:36.279Z,47
2017-10-28T05:43:44.364Z,47
2017-10-28T05:44:52.449Z,47
2017-10-28T05:46:00.534Z,47
2017-10-28T05:47:08.619Z,47
2017-10-28T05:48:16.704Z,47
2017-10-28T05:49:24.880Z,47
2017-10-28T05:50:32.967Z,47
2017-10-28T05:51:41.052Z,47
2017-10-28T05:52:49.134Z,47
2017-10-28T05:53:57.237Z,47
2017-10-28T05:55:05.305Z,47
2017-10-28T05:56:13.392Z,47
2017-10-28T05:57:21.493Z,47
2017-10-28T05:58:29.559Z,47
2017-10-28T05:59:37.647Z,47
2017-10-28T06:00:46.113Z,47
2017-10-28T06:01:53.814Z,47
2017-10-28T06:03:01.898Z,47
2017-10-28T06:04:09.982Z,47
2017-10-28T06:05:18.068Z,47
2017-10-28T06:06:26.155Z,47
2017-10-28T06:07:34.235Z,47
2017-10-28T06:08:42.321Z,47
2017-10-28T06:09:50.405Z,47
2017-10-28T06:10:58.496Z,47
2017-10-28T06:12:06.574Z,47
2017-10-28T06:13:14.660Z,47
2017-10-28T06:14:22.743Z,47
2017-10-28T06:15:30.842Z,47
2017-10-28T06:16:38.926Z,47
2017-10-28T06:17:47.005Z,47
2017-10-28T06:18:55.088Z,47
2017-10-28T06:20:03.173Z,47
2017-10-28T06:21:11.259Z,47
2017-10-28T06:22:19.343Z,47
2017-10-28T06:23:27.428Z,47
2017-10-28T06:24:35.513Z,48
2017-10-28T06:25:43.798Z,47
2017-10-28T06:26:51.683Z,47
2017-10-28T06:27:59.765Z,47
2017-10-28T06:29:07.850Z,47
2017-10-28T06:30:15.934Z,47
2017-10-28T06:31:24.019Z,47
2017-10-28T06:32:32.105Z,47
2017-10-28T06:33:40.187Z,47
2017-10-28T06:34:48.278Z,47
2017-10-28T06:35:56.358Z,48
2017-10-28T06:37:04.442Z,48
2017-10-28T06:38:12.526Z,47
2017-10-28T06:39:20.617Z,47
2017-10-28T06:40:28.702Z,47
2017-10-28T06:41:36.778Z,47
2017-10-28T06:42:44.861Z,48
2017-10-28T06:43:52.962Z,48
2017-10-28T06:45:01.043Z,47
2017-10-28T06:46:09.138Z,47
2017-10-28T06:47:17.215Z,48
2017-10-28T06:48:25.299Z,48
2017-10-28T06:49:33.400Z,48
2017-10-28T06:50:41.494Z,48
2017-10-28T06:51:49.581Z,48
2017-10-28T06:52:57.664Z,47
2017-10-28T06:54:05.749Z,48
2017-10-28T06:55:13.833Z,48
2017-10-28T06:56:21.923Z,48
2017-10-28T06:57:30.000Z,48
2017-10-28T06:58:38.085Z,48
2017-10-28T06:59:46.171Z,48
2017-10-28T07:00:54.256Z,48
2017-10-28T07:02:02.337Z,48
2017-10-28T07:03:10.425Z,48
2017-10-28T07:04:18.754Z,48
2017-10-28T07:05:26.838Z,48
2017-10-28T07:06:34.921Z,48
2017-10-28T07:07:43.009Z,48
2017-10-28T07:08:51.091Z,48
2017-10-28T07:09:59.174Z,48
2017-10-28T07:11:07.267Z,48
2017-10-28T07:12:15.348Z,48
2017-10-28T07:13:23.433Z,48
2017-10-28T07:14:31.519Z,48
2017-10-28T07:15:39.601Z,48
2017-10-28T07:16:47.690Z,48
2017-10-28T07:17:55.772Z,48
2017-10-28T07:19:03.860Z,48
2017-10-28T07:20:11.940Z,48
2017-10-28T07:21:20.033Z,48
2017-10-28T07:22:28.112Z,48
2017-10-28T07:23:36.194Z,48
2017-10-28T07:24:44.281Z,48
2017-10-28T07:25:52.364Z,48
2017-10-28T07:27:00.448Z,48
2017-10-28T07:28:08.530Z,48
2017-10-28T07:29:16.616Z,48
2017-10-28T07:30:24.700Z,48
2017-10-28T07:31:32.788Z,48
2017-10-28T07:32:40.868Z,48
2017-10-28T07:33:49.019Z,48
2017-10-28T07:34:57.040Z,48
2017-10-28T07:36:05.123Z,48
2017-10-28T07:37:13.206Z,48
2017-10-28T07:38:21.313Z,48
2017-10-28T07:39:29.373Z,48
2017-10-28T07:40:37.465Z,48
2017-10-28T07:41:45.542Z,48
2017-10-28T07:42:53.626Z,48
2017-10-28T07:44:01.711Z,48
2017-10-28T07:45:09.794Z,48
2017-10-28T07:46:17.879Z,48
2017-10-28T07:47:25.965Z,48
2017-10-28T07:48:34.045Z,48
2017-10-28T07:49:42.130Z,48
2017-10-28T07:50:50.214Z,48
2017-10-28T07:51:58.301Z,48
2017-10-28T07:53:06.384Z,48
2017-10-28T07:54:14.469Z,48
2017-10-28T07:55:22.555Z,48
2017-10-28T07:56:30.638Z,48
2017-10-28T07:57:38.724Z,48
2017-10-28T07:58:46.806Z,48
2017-10-28T07:59:54.892Z,48
2017-10-28T08:01:02.973Z,48
2017-10-28T08:02:11.058Z,47
2017-10-28T08:03:19.219Z,48
2017-10-28T08:04:27.297Z,48
2017-10-28T08:05:35.987Z,48
2017-10-28T08:06:43.846Z,48
2017-10-28T08:07:52.053Z,48
2017-10-28T08:09:00.087Z,48
2017-10-28T08:10:08.203Z,48
2017-10-28T08:11:16.191Z,48
2017-10-28T08:12:24.284Z,48
2017-10-28T08:13:32.366Z,48
2017-10-28T08:14:40.451Z,48
2017-10-28T08:15:48.536Z,48
2017-10-28T08:16:56.619Z,48
2017-10-28T08:18:04.705Z,48
2017-10-28T08:19:12.785Z,48
2017-10-28T08:20:20.871Z,48
2017-10-28T08:21:28.955Z,48
2017-10-28T08:22:37.040Z,48
2017-10-28T08:23:45.124Z,48
2017-10-28T08:24:53.209Z,48
2017-10-28T08:26:01.296Z,49
2017-10-28T08:27:09.377Z,48
2017-10-28T08:28:17.459Z,49
2017-10-28T08:29:25.550Z,49
2017-10-28T08:30:33.628Z,48
2017-10-28T08:31:41.714Z,47
2017-10-28T08:32:49.796Z,47
2017-10-28T08:33:57.886Z,46
2017-10-28T08:35:05.970Z,45
2017-10-28T08:36:14.052Z,45
2017-10-28T08:37:22.166Z,44
2017-10-28T08:38:30.217Z,44
2017-10-28T08:39:38.305Z,44
2017-10-28T08:40:46.386Z,44
2017-10-28T08:41:54.472Z,43
2017-10-28T08:43:02.558Z,43
2017-10-28T08:44:10.639Z,43
2017-10-28T08:45:18.725Z,43
2017-10-28T08:46:27.326Z,42
2017-10-28T08:47:34.893Z,43
2017-10-28T08:48:43.004Z,43
2017-10-28T08:49:51.058Z,43
2017-10-28T08:50:59.541Z,43
2017-10-28T08:52:07.235Z,42
2017-10-28T08:53:15.314Z,43
2017-10-28T08:54:23.397Z,43
2017-10-28T08:55:31.481Z,42
2017-10-28T08:56:39.573Z,42
2017-10-28T08:57:47.650Z,43
2017-10-28T08:58:55.734Z,43
2017-10-28T09:00:03.817Z,42
2017-10-28T09:01:11.901Z,43
2017-10-28T09:02:19.984Z,43
2017-10-28T09:03:28.542Z,43
2017-10-28T09:04:36.156Z,43
2017-10-28T09:05:44.239Z,43
2017-10-28T09:06:52.329Z,43
2017-10-28T09:08:00.410Z,43
2017-10-28T09:09:08.493Z,43
2017-10-28T09:10:16.584Z,43
2017-10-28T09:11:24.664Z,43
2017-10-28T09:12:32.746Z,43
2017-10-28T09:13:40.832Z,43
2017-10-28T09:14:48.919Z,43
2017-10-28T09:15:57.022Z,43
2017-10-28T09:17:05.098Z,43
2017-10-28T09:18:13.183Z,43
2017-10-28T09:19:21.266Z,43
2017-10-28T09:20:29.352Z,43
2017-10-28T09:21:37.434Z,43
2017-10-28T09:22:45.518Z,43
2017-10-28T09:23:53.600Z,43
2017-10-28T09:25:01.690Z,43
2017-10-28T09:26:09.769Z,43
2017-10-28T09:27:17.861Z,43
2017-10-28T09:28:25.938Z,43
2017-10-28T09:29:34.203Z,44
2017-10-28T09:30:42.287Z,44
2017-10-28T09:31:50.371Z,44
2017-10-28T09:32:58.464Z,44
2017-10-28T09:34:06.548Z,44
2017-10-28T09:35:14.631Z,44
2017-10-28T09:36:22.715Z,44
2017-10-28T09:37:30.800Z,45
2017-10-28T09:38:38.890Z,44
2017-10-28T09:39:46.969Z,45
2017-10-28T09:40:55.049Z,45
2017-10-28T09:42:03.132Z,45
2017-10-28T09:43:11.218Z,46
2017-10-28T09:44:19.303Z,46
2017-10-28T09:45:27.387Z,46
2017-10-28T09:46:35.470Z,46
2017-10-28T09:47:43.556Z,46
2017-10-28T09:48:51.645Z,46
2017-10-28T09:49:59.722Z,46
2017-10-28T09:51:07.805Z,47
2017-10-28T09:52:15.890Z,46
2017-10-28T09:53:23.974Z,46
2017-10-28T09:54:32.060Z,46
2017-10-28T09:55:40.143Z,46
2017-10-28T09:56:48.227Z,46
2017-10-28T09:57:56.320Z,46
2017-10-28T09:59:04.404Z,46
2017-10-28T10:00:12.488Z,47
2017-10-28T10:01:20.577Z,46
2017-10-28T10:02:28.657Z,47
2017-10-28T10:03:36.740Z,47
2017-10-28T10:04:44.825Z,47
2017-10-28T10:05:52.910Z,46
2017-10-28T10:07:00.994Z,47
2017-10-28T10:08:09.076Z,47
2017-10-28T10:09:17.161Z,47
2017-10-28T10:10:25.311Z,47
2017-10-28T10:11:33.328Z,47
2017-10-28T10:12:41.414Z,47
2017-10-28T10:13:49.974Z,48
2017-10-28T10:14:57.936Z,48
2017-10-28T10:16:06.026Z,47
2017-10-28T10:17:14.109Z,48
2017-10-28T10:18:22.198Z,48
2017-10-28T10:19:30.286Z,48
2017-10-28T10:20:38.367Z,48
2017-10-28T10:21:46.448Z,48
2017-10-28T10:22:54.579Z,48
2017-10-28T10:24:02.615Z,48
2017-10-28T10:25:10.700Z,47
2017-10-28T10:26:18.785Z,48
2017-10-28T10:27:26.868Z,48
2017-10-28T10:28:35.046Z,48
2017-10-28T10:29:43.037Z,48
2017-10-28T10:30:51.126Z,48
2017-10-28T10:31:59.209Z,48
2017-10-28T10:33:07.297Z,48
2017-10-28T10:34:16.266Z,48
2017-10-28T10:35:23.462Z,48
2017-10-28T10:36:31.546Z,48
2017-10-28T10:37:39.630Z,49
2017-10-28T10:38:47.717Z,49
2017-10-28T10:39:55.798Z,48
2017-10-28T10:41:03.880Z,49
2017-10-28T10:42:11.974Z,49
2017-10-28T10:43:20.068Z,49
2017-10-28T10:44:28.149Z,49
2017-10-28T10:45:36.231Z,49
2017-10-28T10:46:44.315Z,49
2017-10-28T10:47:52.398Z,49
2017-10-28T10:49:00.485Z,49
2017-10-28T10:50:08.567Z,49
2017-10-28T10:51:16.652Z,49
2017-10-28T10:52:24.739Z,49
2017-10-28T10:53:32.817Z,49
2017-10-28T10:54:40.905Z,50
2017-10-28T10:55:48.984Z,49
2017-10-28T10:56:57.069Z,49
2017-10-28T10:58:05.154Z,50
2017-10-28T10:59:13.237Z,49
2017-10-28T11:00:21.321Z,49
2017-10-28T11:01:29.411Z,50
2017-10-28T11:02:37.497Z,49
2017-10-28T11:03:45.580Z,49
2017-10-28T11:04:53.665Z,49
2017-10-28T11:06:01.753Z,50
2017-10-28T11:07:09.888Z,49
2017-10-28T11:08:17.924Z,50
2017-10-28T11:09:26.016Z,50
2017-10-28T11:10:34.101Z,49
2017-10-28T11:11:42.186Z,50
2017-10-28T11:12:50.269Z,50
2017-10-28T11:13:58.359Z,50
2017-10-28T11:15:06.436Z,50
2017-10-28T11:16:14.522Z,50
2017-10-28T11:17:22.606Z,50
2017-10-28T11:18:30.689Z,50
2017-10-28T11:19:38.772Z,50
2017-10-28T11:20:46.855Z,50
2017-10-28T11:21:54.939Z,50
2017-10-28T11:23:03.023Z,50
2017-10-28T11:24:11.109Z,49
2017-10-28T11:25:19.217Z,50
2017-10-28T11:26:27.286Z,50
2017-10-28T11:27:35.375Z,50
2017-10-28T11:28:43.454Z,50
2017-10-28T11:29:51.542Z,50
2017-10-28T11:30:59.620Z,50
2017-10-28T11:32:07.704Z,50
2017-10-28T11:33:15.790Z,50
2017-10-28T11:34:23.874Z,51
2017-10-28T11:35:32.884Z,51
2017-10-28T11:36:40.843Z,51
2017-10-28T11:37:49.029Z,51
2017-10-28T11:38:57.094Z,51
2017-10-28T11:40:05.093Z,51
2017-10-28T11:41:13.177Z,51
2017-10-28T11:42:21.264Z,51
2017-10-28T11:43:29.344Z,51
2017-10-28T11:44:37.433Z,51
2017-10-28T11:45:45.526Z,51
2017-10-28T11:46:53.608Z,51
2017-10-28T11:48:01.691Z,51
2017-10-28T11:49:09.785Z,51
2017-10-28T11:50:17.871Z,51
2017-10-28T11:51:25.955Z,51
2017-10-28T11:52:34.327Z,51
2017-10-28T11:53:42.389Z,51
2017-10-28T11:54:50.477Z,51
2017-10-28T11:55:58.558Z,51
2017-10-28T11:57:06.640Z,51
2017-10-28T11:58:14.736Z,51
2017-10-28T11:59:22.810Z,51
2017-10-28T12:00:30.895Z,51
2017-10-28T12:01:38.981Z,51
2017-10-28T12:02:47.063Z,52
2017-10-28T12:03:55.147Z,51
2017-10-28T12:05:03.229Z,51
2017-10-28T12:06:11.316Z,51
2017-10-28T12:07:19.407Z,51
2017-10-28T12:08:27.484Z,52
2017-10-28T12:09:35.570Z,51
2017-10-28T12:10:43.654Z,51
2017-10-28T12:11:51.736Z,51
2017-10-28T12:12:59.822Z,51
2017-10-28T12:14:07.911Z,51
2017-10-28T12:15:15.988Z,51
2017-10-28T12:16:24.073Z,51
2017-10-28T12:17:32.159Z,51
2017-10-28T12:18:40.242Z,51
2017-10-28T12:19:48.326Z,51
2017-10-28T12:20:56.412Z,51
2017-10-28T12:22:04.496Z,51
2017-10-28T12:23:12.582Z,51
2017-10-28T12:24:20.664Z,51
2017-10-28T12:25:28.747Z,51
2017-10-28T12:26:36.829Z,51
2017-10-28T12:27:44.921Z,51
2017-10-28T12:28:53.002Z,51
2017-10-28T12:30:01.081Z,51
2017-10-28T12:31:09.173Z,51
2017-10-28T12:32:17.256Z,51
2017-10-28T12:33:25.337Z,51
2017-10-28T12:34:33.421Z,51
2017-10-28T12:35:41.506Z,51
2017-10-28T12:36:49.589Z,51
2017-10-28T12:37:57.675Z,51
2017-10-28T12:39:05.790Z,51
2017-10-28T12:40:13.872Z,51
2017-10-28T12:41:21.960Z,51
2017-10-28T12:42:30.045Z,51
2017-10-28T12:43:38.126Z,51
2017-10-28T12:44:46.212Z,51
2017-10-28T12:45:54.298Z,51
2017-10-28T12:47:02.378Z,51
2017-10-28T12:48:10.463Z,51
2017-10-28T12:49:18.548Z,51
2017-10-28T12:50:26.634Z,51
2017-10-28T12:51:34.736Z,51
2017-10-28T12:52:42.801Z,51
2017-10-28T12:53:50.886Z,51
2017-10-28T12:54:58.976Z,51
2017-10-28T12:56:07.061Z,51
2017-10-28T12:57:15.147Z,51
2017-10-28T12:58:23.231Z,51
2017-10-28T12:59:31.316Z,51
2017-10-28T13:00:39.400Z,51
2017-10-28T13:01:47.489Z,51
2017-10-28T13:02:55.573Z,51
2017-10-28T13:04:03.660Z,51
2017-10-28T13:05:11.739Z,50
2017-10-28T13:06:19.824Z,51
2017-10-28T13:07:27.906Z,51
2017-10-28T13:08:35.993Z,51
2017-10-28T13:09:44.083Z,50
2017-10-28T13:10:52.162Z,50
2017-10-28T13:12:00.246Z,51
2017-10-28T13:13:08.330Z,51
2017-10-28T13:14:16.425Z,51
2017-10-28T13:15:24.509Z,51
2017-10-28T13:16:32.591Z,51
2017-10-28T13:17:40.692Z,50
2017-10-28T13:18:48.773Z,50
2017-10-28T13:19:56.848Z,50
2017-10-28T13:21:04.924Z,50
2017-10-28T13:22:13.011Z,50
2017-10-28T13:23:21.094Z,50
2017-10-28T13:24:29.183Z,50
2017-10-28T13:25:37.266Z,50
2017-10-28T13:26:45.716Z,50
2017-10-28T13:27:53.432Z,50
2017-10-28T13:29:01.522Z,50
2017-10-28T13:30:09.604Z,50
2017-10-28T13:31:17.687Z,50
2017-10-28T13:32:25.771Z,50
2017-10-28T13:33:33.857Z,50
2017-10-28T13:34:41.939Z,51
2017-10-28T13:35:50.027Z,50
2017-10-28T13:36:58.110Z,51
2017-10-28T13:38:06.194Z,51
2017-10-28T13:39:14.279Z,50
2017-10-28T13:40:22.365Z,50
2017-10-28T13:41:30.450Z,50
2017-10-28T13:42:38.533Z,50
2017-10-28T13:43:46.635Z,50
2017-10-28T13:44:54.720Z,50
2017-10-28T13:46:02.787Z,50
2017-10-28T13:47:10.874Z,50
2017-10-28T13:48:18.974Z,50
2017-10-28T13:49:27.068Z,50
2017-10-28T13:50:35.147Z,50
2017-10-28T13:51:43.229Z,50
2017-10-28T13:52:51.306Z,50
2017-10-28T13:53:59.393Z,50
2017-10-28T13:55:07.477Z,50
2017-10-28T13:56:15.563Z,50
2017-10-28T13:57:23.647Z,50
2017-10-28T13:58:31.732Z,50
2017-10-28T13:59:39.818Z,50
2017-10-28T14:00:47.901Z,50
2017-10-28T14:01:55.986Z,50
2017-10-28T14:03:04.077Z,50
2017-10-28T14:04:12.156Z,50
2017-10-28T14:05:20.244Z,50
2017-10-28T14:06:28.326Z,50
2017-10-28T14:07:36.422Z,50
2017-10-28T14:08:44.508Z,50
2017-10-28T14:09:52.589Z,50
2017-10-28T14:11:00.676Z,51
2017-10-28T14:12:08.768Z,51
2017-10-28T14:13:16.846Z,50
2017-10-28T14:14:24.923Z,50
2017-10-28T14:15:33.021Z,50
2017-10-28T14:16:41.717Z,50
2017-10-28T14:17:49.184Z,50
2017-10-28T14:18:57.276Z,50
2017-10-28T14:20:05.382Z,50
2017-10-28T14:21:13.462Z,50
2017-10-28T14:22:21.537Z,50
2017-10-28T14:23:29.613Z,50
2017-10-28T14:24:37.703Z,50
2017-10-28T14:25:45.801Z,50
2017-10-28T14:26:53.876Z,50
2017-10-28T14:28:01.960Z,50
2017-10-28T14:29:10.061Z,50
2017-10-28T14:30:18.149Z,50
2017-10-28T14:31:26.225Z,50
2017-10-28T14:32:34.313Z,50
2017-10-28T14:33:42.404Z,49
2017-10-28T14:34:50.479Z,49
2017-10-28T14:35:58.567Z,49
2017-10-28T14:37:06.662Z,50
2017-10-28T14:38:14.737Z,50
2017-10-28T14:39:22.823Z,49
2017-10-28T14:40:30.911Z,50
2017-10-28T14:41:39.006Z,50
2017-10-28T14:42:47.078Z,50
2017-10-28T14:43:55.164Z,49
2017-10-28T14:45:03.256Z,49
2017-10-28T14:46:11.334Z,49
2017-10-28T14:47:19.417Z,49
2017-10-28T14:48:27.686Z,49
2017-10-28T14:49:35.768Z,49
2017-10-28T14:50:43.850Z,49
2017-10-28T14:51:51.937Z,49
2017-10-28T14:53:00.022Z,49
2017-10-28T14:54:08.171Z,49
2017-10-28T14:55:16.192Z,49
2017-10-28T14:56:24.286Z,49
2017-10-28T14:57:32.362Z,49
2017-10-28T14:58:40.451Z,49
2017-10-28T14:59:48.536Z,49
2017-10-28T15:00:56.621Z,49
2017-10-28T15:02:04.716Z,49
2017-10-28T15:03:12.791Z,49
2017-10-28T15:04:20.883Z,49
2017-10-28T15:05:28.965Z,49
2017-10-28T15:06:37.049Z,49
2017-10-28T15:07:45.133Z,49
2017-10-28T15:08:53.220Z,49
2017-10-28T15:10:01.300Z,49
2017-10-28T15:11:09.400Z,49
2017-10-28T15:12:17.490Z,49
2017-10-28T15:13:25.568Z,49
2017-10-28T15:14:33.748Z,49
2017-10-28T15:15:41.746Z,48
2017-10-28T15:16:49.833Z,48
2017-10-28T15:17:58.793Z,48
2017-10-28T15:19:06.873Z,48
2017-10-28T15:20:14.966Z,48
2017-10-28T15:21:23.053Z,48
2017-10-28T15:22:31.137Z,48
2017-10-28T15:23:39.242Z,48
2017-10-28T15:24:47.311Z,48
2017-10-28T15:25:55.396Z,48
2017-10-28T15:27:03.481Z,48
2017-10-28T15:28:11.569Z,49
2017-10-28T15:29:19.653Z,48
2017-10-28T15:30:27.739Z,48
2017-10-28T15:31:35.822Z,48
2017-10-28T15:32:43.912Z,48
2017-10-28T15:33:51.998Z,48
2017-10-28T15:35:00.097Z,48
2017-10-28T15:36:08.169Z,48
2017-10-28T15:37:16.266Z,48
2017-10-28T15:38:24.341Z,48
2017-10-28T15:39:32.430Z,48
2017-10-28T15:40:40.516Z,48
2017-10-28T15:41:48.603Z,48
2017-10-28T15:42:56.688Z,48
2017-10-28T15:44:04.776Z,48
2017-10-28T15:45:12.863Z,48
2017-10-28T15:46:20.957Z,48
2017-10-28T15:47:29.044Z,48
2017-10-28T15:48:37.139Z,48
2017-10-28T15:49:45.225Z,48
2017-10-28T15:50:53.309Z,48
2017-10-28T15:52:01.393Z,48
2017-10-28T15:53:09.487Z,48
2017-10-28T15:54:17.578Z,48
2017-10-28T15:55:25.657Z,48
2017-10-28T15:56:33.742Z,48
2017-10-28T15:57:41.829Z,48
2017-10-28T15:58:49.916Z,48
2017-10-28T15:59:58.001Z,48
2017-10-28T16:01:06.088Z,48
2017-10-28T16:02:14.173Z,48
2017-10-28T16:03:22.268Z,48
2017-10-28T16:04:30.373Z,48
2017-10-28T16:05:38.442Z,48
2017-10-28T16:06:46.527Z,48
2017-10-28T16:07:54.612Z,48
2017-10-28T16:09:02.695Z,48
2017-10-28T16:10:10.784Z,47
2017-10-28T16:11:18.872Z,48